Time;durP1;ratioP1;P1;durP2;ratioP2;P2;SDS_P1;SDS_P2;PMS_P1;PMS_P2;Temp;Humidity;BMP_temperature;BMP_pressure;BME280_temperature;BME280_humidity;BME280_pressure;Samples;Min_cycle;Max_cycle;Signal;HPM_P1;HPM_P2
2021/03/31 00:00:39;;;;;;;34.70;18.92;;;12.30;99.90;;;;;;5105232;28;20103;-72
2021/03/31 00:03:16;;;;;;;29.23;17.23;;;12.30;99.90;;;;;;5091352;28;20115;-73
2021/03/31 00:05:42;;;;;;;31.30;17.10;;;12.30;99.90;;;;;;5091741;28;20099;-72
2021/03/31 00:08:08;;;;;;;34.97;18.92;;;12.20;99.90;;;;;;5090560;28;20518;-73
2021/03/31 00:10:45;;;;;;;34.92;18.85;;;12.10;99.90;;;;;;5091441;28;20044;-73
2021/03/31 00:13:11;;;;;;;35.42;17.85;;;12.00;99.90;;;;;;5091429;28;20024;-72
2021/03/31 00:15:37;;;;;;;34.58;19.67;;;11.90;99.90;;;;;;5090810;28;20030;-73
2021/03/31 00:18:09;;;;;;;31.60;18.50;;;11.80;99.90;;;;;;5091434;28;20024;-73
2021/03/31 00:20:37;;;;;;;39.13;18.98;;;11.80;99.90;;;;;;5090620;28;20044;-73
2021/03/31 00:23:04;;;;;;;36.33;19.50;;;11.70;99.90;;;;;;5091409;28;20092;-73
2021/03/31 00:25:30;;;;;;;33.67;18.35;;;11.60;99.90;;;;;;5096899;28;20031;-73
2021/03/31 00:27:56;;;;;;;33.40;17.20;;;11.50;99.90;;;;;;5090392;28;20032;-73
2021/03/31 00:30:22;;;;;;;34.80;18.35;;;11.50;99.90;;;;;;5100096;28;20482;-71
2021/03/31 00:32:47;;;;;;;35.85;18.67;;;11.50;99.90;;;;;;5097538;28;20016;-73
2021/03/31 00:35:13;;;;;;;41.53;20.70;;;11.40;99.90;;;;;;5108167;28;20038;-73
2021/03/31 00:37:39;;;;;;;37.83;19.50;;;11.40;99.90;;;;;;5095196;28;20129;-72
2021/03/31 00:40:13;;;;;;;43.05;20.65;;;11.40;99.90;;;;;;5094606;28;20168;-73
2021/03/31 00:42:40;;;;;;;40.22;20.90;;;11.30;99.90;;;;;;5099055;28;20032;-73
2021/03/31 00:45:10;;;;;;;41.97;20.00;;;11.30;99.90;;;;;;5104198;28;20078;-73
2021/03/31 00:47:36;;;;;;;40.40;20.55;;;11.30;99.90;;;;;;5094499;28;20475;-72
2021/03/31 00:50:05;;;;;;;38.50;21.13;;;11.20;99.90;;;;;;5093895;28;20032;-72
2021/03/31 00:52:33;;;;;;;48.63;21.88;;;11.20;99.90;;;;;;5094774;28;20020;-72
2021/03/31 00:54:59;;;;;;;46.45;20.65;;;11.20;99.90;;;;;;5094597;28;20485;-73
2021/03/31 00:57:26;;;;;;;38.88;20.08;;;11.20;99.90;;;;;;5105579;28;20106;-73
2021/03/31 00:59:52;;;;;;;47.72;22.50;;;11.20;99.90;;;;;;5109729;28;20043;-72
2021/03/31 01:02:17;;;;;;;44.05;21.50;;;11.30;99.90;;;;;;5102304;28;20029;-72
2021/03/31 01:04:43;;;;;;;45.53;22.42;;;11.30;99.90;;;;;;5100521;28;20024;-73
2021/03/31 01:07:09;;;;;;;40.38;20.95;;;11.30;99.90;;;;;;5094421;28;20024;-73
2021/03/31 01:09:35;;;;;;;48.28;22.30;;;11.40;99.90;;;;;;5102383;28;20072;-73
2021/03/31 01:12:47;;;;;;;41.30;22.45;;;11.40;99.90;;;;;;5094461;28;20062;-72
2021/03/31 01:15:31;;;;;;;42.45;21.52;;;11.40;99.90;;;;;;5091811;28;20105;-73
2021/03/31 01:18:14;;;;;;;45.25;20.48;;;11.40;99.90;;;;;;5094229;28;20028;-74
2021/03/31 01:21:22;;;;;;;45.70;21.42;;;11.40;99.90;;;;;;5094603;28;20077;-72
2021/03/31 01:24:18;;;;;;;44.05;21.95;;;11.40;99.90;;;;;;5080948;28;20127;-73
2021/03/31 01:26:51;;;;;;;46.25;21.67;;;11.30;99.90;;;;;;5094006;28;20028;-73
2021/03/31 01:29:35;;;;;;;43.58;22.40;;;11.30;99.90;;;;;;5093919;28;20016;-73
2021/03/31 01:32:15;;;;;;;49.13;23.38;;;11.30;99.90;;;;;;5093134;28;20075;-73
2021/03/31 01:34:51;;;;;;;47.33;22.60;;;11.30;99.90;;;;;;5105563;28;20032;-73
2021/03/31 01:37:25;;;;;;;49.25;22.95;;;11.30;99.90;;;;;;5094630;28;20039;-73
2021/03/31 01:39:54;;;;;;;43.63;21.70;;;11.30;99.90;;;;;;5093239;28;20020;-73
2021/03/31 01:42:21;;;;;;;49.00;23.75;;;11.30;99.90;;;;;;5093619;28;20107;-72
2021/03/31 01:44:50;;;;;;;43.97;22.63;;;11.30;99.90;;;;;;5092371;28;20062;-73
2021/03/31 01:47:18;;;;;;;45.33;21.90;;;11.20;99.90;;;;;;5093472;28;20038;-73
2021/03/31 01:49:44;;;;;;;50.20;23.33;;;11.20;99.90;;;;;;5093782;28;20379;-72
2021/03/31 01:52:12;;;;;;;55.78;24.10;;;11.20;99.90;;;;;;5092720;28;20045;-72
2021/03/31 01:54:43;;;;;;;52.30;25.25;;;11.20;99.90;;;;;;5093320;28;20031;-72
2021/03/31 01:57:11;;;;;;;43.67;22.17;;;11.20;99.90;;;;;;5093496;28;20167;-73
2021/03/31 01:59:37;;;;;;;47.67;23.23;;;11.20;99.90;;;;;;5093018;28;20045;-72
2021/03/31 02:02:08;;;;;;;48.17;23.13;;;11.20;99.90;;;;;;5093585;28;20107;-72
2021/03/31 02:04:35;;;;;;;45.95;23.08;;;11.20;99.90;;;;;;5093510;28;20024;-73
2021/03/31 02:07:08;;;;;;;52.08;22.98;;;11.20;99.90;;;;;;5092479;28;20399;-71
2021/03/31 02:09:38;;;;;;;40.58;21.38;;;11.10;99.90;;;;;;5093429;28;20020;-73
2021/03/31 02:12:04;;;;;;;40.63;21.23;;;11.10;99.90;;;;;;5093319;28;20028;-75
2021/03/31 02:14:31;;;;;;;47.05;21.38;;;11.00;99.90;;;;;;5092522;28;20069;-71
2021/03/31 02:16:58;;;;;;;48.70;22.55;;;11.00;99.90;;;;;;5093180;28;20056;-73
2021/03/31 02:19:24;;;;;;;42.65;20.00;;;10.90;99.90;;;;;;5092381;28;20138;-72
2021/03/31 02:21:51;;;;;;;39.85;20.15;;;10.90;99.90;;;;;;5092397;28;20111;-71
2021/03/31 02:24:21;;;;;;;45.08;21.98;;;10.70;99.90;;;;;;5093258;28;20070;-73
2021/03/31 02:26:47;;;;;;;43.42;20.73;;;10.70;99.90;;;;;;5093798;28;20069;-73
2021/03/31 02:29:13;;;;;;;48.72;22.17;;;10.60;99.90;;;;;;5093363;28;20112;-74
2021/03/31 02:31:40;;;;;;;41.35;21.83;;;10.60;99.90;;;;;;5093949;28;20504;-73
2021/03/31 02:34:07;;;;;;;42.35;22.23;;;10.50;99.90;;;;;;5099147;28;20024;-72
2021/03/31 02:36:34;;;;;;;38.42;21.25;;;10.50;99.90;;;;;;5100957;28;20028;-72
2021/03/31 02:39:01;;;;;;;40.15;21.20;;;10.50;99.90;;;;;;5093287;28;20039;-72
2021/03/31 02:41:28;;;;;;;41.75;20.73;;;10.40;99.90;;;;;;5092161;28;20031;-74
2021/03/31 02:43:55;;;;;;;44.85;19.58;;;10.40;99.90;;;;;;5092729;28;20132;-72
2021/03/31 02:46:22;;;;;;;49.42;23.65;;;10.40;99.90;;;;;;5092848;28;20031;-73
2021/03/31 02:48:50;;;;;;;39.92;20.40;;;10.30;99.90;;;;;;5091840;28;20085;-73
2021/03/31 02:51:18;;;;;;;39.78;21.00;;;10.30;99.90;;;;;;5092499;28;20024;-72
2021/03/31 02:53:44;;;;;;;40.85;20.77;;;10.20;99.90;;;;;;5092334;28;20024;-73
2021/03/31 02:56:12;;;;;;;47.60;22.30;;;10.20;99.90;;;;;;5091383;28;20095;-72
2021/03/31 02:58:39;;;;;;;41.80;21.27;;;10.10;99.90;;;;;;5092283;28;20079;-73
2021/03/31 03:01:06;;;;;;;42.67;20.33;;;10.10;99.90;;;;;;5091938;28;20024;-73
2021/03/31 03:03:33;;;;;;;43.55;21.33;;;10.10;99.90;;;;;;5091594;28;20040;-73
2021/03/31 03:06:00;;;;;;;42.70;20.75;;;10.00;99.90;;;;;;5092255;28;20028;-73
2021/03/31 03:08:26;;;;;;;41.13;21.75;;;10.00;99.90;;;;;;5092297;28;20074;-73
2021/03/31 03:10:55;;;;;;;45.67;23.23;;;10.00;99.90;;;;;;5091343;28;20490;-73
2021/03/31 03:13:22;;;;;;;44.50;22.75;;;9.90;99.90;;;;;;5092085;28;20657;-71
2021/03/31 03:15:48;;;;;;;43.15;20.30;;;9.90;99.90;;;;;;5091891;28;20073;-72
2021/03/31 03:18:14;;;;;;;47.63;21.98;;;9.80;99.90;;;;;;5091446;28;20434;-75
2021/03/31 03:20:39;;;;;;;45.60;23.38;;;9.80;99.90;;;;;;5092005;28;20035;-72
2021/03/31 03:23:06;;;;;;;43.05;21.20;;;9.80;99.90;;;;;;5091115;28;20044;-73
2021/03/31 03:25:33;;;;;;;44.08;21.92;;;9.80;99.90;;;;;;5090961;28;20099;-74
2021/03/31 03:27:59;;;;;;;44.38;21.45;;;9.80;99.90;;;;;;5091060;28;20442;-73
2021/03/31 03:30:26;;;;;;;42.45;20.55;;;9.70;99.90;;;;;;5090129;28;20371;-72
2021/03/31 03:32:53;;;;;;;47.28;23.15;;;9.70;99.90;;;;;;5091260;28;20035;-73
2021/03/31 03:35:26;;;;;;;41.65;22.13;;;9.70;99.90;;;;;;5105172;28;20088;-73
2021/03/31 03:37:53;;;;;;;46.13;21.88;;;9.70;99.90;;;;;;5090606;28;20034;-74
2021/03/31 03:40:23;;;;;;;46.08;23.20;;;9.60;99.90;;;;;;5090715;28;20039;-73
2021/03/31 03:42:49;;;;;;;46.08;23.35;;;9.60;99.90;;;;;;5090951;28;20050;-73
2021/03/31 03:45:15;;;;;;;50.60;24.67;;;9.60;99.90;;;;;;5090321;28;20024;-73
2021/03/31 03:47:43;;;;;;;49.25;22.73;;;9.60;99.90;;;;;;5090875;28;20130;-73
2021/03/31 03:50:11;;;;;;;39.95;22.15;;;9.60;99.90;;;;;;5090819;28;20031;-73
2021/03/31 03:52:38;;;;;;;52.47;23.45;;;9.60;99.90;;;;;;5090314;28;20035;-72
2021/03/31 03:55:04;;;;;;;44.80;22.10;;;9.60;99.90;;;;;;5091625;28;20035;-71
2021/03/31 03:57:30;;;;;;;55.13;21.95;;;9.50;99.90;;;;;;5091430;28;20352;-74
2021/03/31 03:59:56;;;;;;;45.22;22.48;;;9.50;99.90;;;;;;5090893;28;20068;-72
2021/03/31 04:02:22;;;;;;;44.20;23.45;;;9.50;99.90;;;;;;5091226;28;20071;-72
2021/03/31 04:04:47;;;;;;;41.33;21.98;;;9.50;99.90;;;;;;5091643;28;20028;-72
2021/03/31 04:07:13;;;;;;;46.38;22.60;;;9.40;99.90;;;;;;5090584;28;20031;-73
2021/03/31 04:09:46;;;;;;;51.03;23.17;;;9.40;99.90;;;;;;5095302;28;20484;-73
2021/03/31 04:12:12;;;;;;;44.42;22.15;;;9.30;99.90;;;;;;5095071;28;20024;-73
2021/03/31 04:14:40;;;;;;;49.20;23.40;;;9.30;99.90;;;;;;5094846;28;20024;-72
2021/03/31 04:17:09;;;;;;;46.20;22.92;;;9.30;99.90;;;;;;5095343;28;20028;-72
2021/03/31 04:19:37;;;;;;;48.92;21.85;;;9.20;99.90;;;;;;5094411;28;20043;-72
2021/03/31 04:22:03;;;;;;;43.90;23.13;;;9.20;99.90;;;;;;5095332;28;20020;-72
2021/03/31 04:24:29;;;;;;;45.85;23.80;;;9.10;99.90;;;;;;5095022;28;20024;-74
2021/03/31 04:26:56;;;;;;;51.05;23.98;;;9.10;99.90;;;;;;5094754;28;20382;-72
2021/03/31 04:29:23;;;;;;;47.42;22.42;;;9.10;99.90;;;;;;5094984;28;20121;-72
2021/03/31 04:31:48;;;;;;;51.67;24.00;;;9.10;99.90;;;;;;5095134;28;20020;-73
2021/03/31 04:34:15;;;;;;;49.60;23.58;;;9.00;99.90;;;;;;5101887;28;20425;-72
2021/03/31 04:36:41;;;;;;;44.55;23.25;;;9.00;99.90;;;;;;5101398;28;20028;-72
2021/03/31 04:39:07;;;;;;;57.13;25.90;;;9.00;99.90;;;;;;5094460;28;20523;-72
2021/03/31 04:41:33;;;;;;;55.13;25.02;;;9.00;99.90;;;;;;5094524;28;20123;-75
2021/03/31 04:43:59;;;;;;;56.72;26.15;;;9.00;99.90;;;;;;5094793;28;20067;-73
2021/03/31 04:46:25;;;;;;;56.17;27.00;;;9.00;99.90;;;;;;5094512;28;20055;-71
2021/03/31 04:48:50;;;;;;;55.25;26.27;;;9.00;99.90;;;;;;5093915;28;20020;-73
2021/03/31 04:51:16;;;;;;;52.08;25.67;;;9.10;99.90;;;;;;5094541;28;20027;-73
2021/03/31 04:53:41;;;;;;;57.22;26.35;;;9.10;99.90;;;;;;5094699;28;20443;-72
2021/03/31 04:56:07;;;;;;;55.13;26.67;;;9.10;99.90;;;;;;5093657;28;20012;-72
2021/03/31 04:58:33;;;;;;;54.47;26.25;;;9.10;99.90;;;;;;5094830;28;20024;-73
2021/03/31 05:01:00;;;;;;;51.28;26.10;;;9.20;99.90;;;;;;5093284;28;20016;-73
2021/03/31 05:03:26;;;;;;;53.40;26.33;;;9.10;99.90;;;;;;5094097;28;20036;-72
2021/03/31 05:05:52;;;;;;;52.38;26.45;;;9.10;99.90;;;;;;5094897;28;20093;-73
2021/03/31 05:08:18;;;;;;;59.45;26.85;;;9.20;99.90;;;;;;5094021;28;20020;-72
2021/03/31 05:10:43;;;;;;;57.33;28.55;;;9.10;99.90;;;;;;5093771;28;20027;-73
2021/03/31 05:13:09;;;;;;;57.67;25.73;;;9.10;99.90;;;;;;5094182;28;20020;-74
2021/03/31 05:15:34;;;;;;;55.45;27.27;;;9.10;99.90;;;;;;5093928;28;20024;-74
2021/03/31 05:18:00;;;;;;;54.47;27.35;;;9.10;99.90;;;;;;5093341;28;20027;-73
2021/03/31 05:20:26;;;;;;;61.72;26.55;;;9.20;99.90;;;;;;5093809;28;20048;-74
2021/03/31 05:22:51;;;;;;;58.30;28.00;;;9.10;99.90;;;;;;5093368;28;20071;-74
2021/03/31 05:25:17;;;;;;;60.40;27.60;;;9.10;99.90;;;;;;5093594;28;20020;-72
2021/03/31 05:27:43;;;;;;;65.07;27.98;;;9.10;99.90;;;;;;5104354;28;20024;-72
2021/03/31 05:30:10;;;;;;;62.92;28.73;;;9.10;99.90;;;;;;5107862;28;20019;-73
2021/03/31 05:32:35;;;;;;;67.25;27.90;;;9.10;99.90;;;;;;5101585;28;20039;-74
2021/03/31 05:35:02;;;;;;;58.58;27.40;;;9.10;99.90;;;;;;5113367;28;20116;-73
2021/03/31 05:37:27;;;;;;;64.88;28.10;;;9.10;99.90;;;;;;5111118;28;20019;-75
2021/03/31 05:39:53;;;;;;;72.30;30.10;;;9.10;99.90;;;;;;5111972;28;20360;-73
2021/03/31 05:42:19;;;;;;;67.25;27.80;;;9.10;99.90;;;;;;5107771;28;20039;-72
2021/03/31 05:44:45;;;;;;;65.90;29.00;;;9.10;99.90;;;;;;5108481;28;20112;-73
2021/03/31 05:47:17;;;;;;;70.70;28.23;;;9.10;99.90;;;;;;5108771;28;20036;-72
2021/03/31 05:49:44;;;;;;;60.28;27.73;;;9.10;99.90;;;;;;5112463;28;20047;-73
2021/03/31 05:52:10;;;;;;;72.22;27.05;;;9.20;99.90;;;;;;5110414;28;20027;-73
2021/03/31 05:54:37;;;;;;;77.82;28.05;;;9.20;99.90;;;;;;5112477;28;20050;-73
2021/03/31 05:57:03;;;;;;;59.38;28.05;;;9.20;99.90;;;;;;5098550;28;20036;-73
2021/03/31 05:59:30;;;;;;;56.85;26.83;;;9.20;99.90;;;;;;5092691;28;20017;-73
2021/03/31 06:01:56;;;;;;;65.85;29.60;;;9.20;99.90;;;;;;5093456;28;20388;-75
2021/03/31 06:04:22;;;;;;;56.60;27.15;;;9.30;99.90;;;;;;5092464;28;20032;-73
2021/03/31 06:06:47;;;;;;;60.78;27.50;;;9.30;99.90;;;;;;5092579;28;20337;-73
2021/03/31 06:09:13;;;;;;;68.00;28.20;;;9.40;99.90;;;;;;5094922;28;20099;-74
2021/03/31 06:11:57;;;;;;;66.18;28.38;;;9.40;99.90;;;;;;5092795;28;20632;-72
2021/03/31 06:14:36;;;;;;;65.70;27.83;;;9.50;99.90;;;;;;5107186;28;20123;-74
2021/03/31 06:17:10;;;;;;;61.50;27.55;;;9.50;99.90;;;;;;5099439;28;20074;-73
2021/03/31 06:19:38;;;;;;;59.38;25.88;;;9.60;99.90;;;;;;5107045;28;20046;-73
2021/03/31 06:22:48;;;;;;;62.50;26.77;;;9.70;99.90;;;;;;5111583;28;20497;-75
2021/03/31 06:25:01;;;;;;;55.65;25.98;;;9.70;99.90;;;;;;5108507;28;20032;-74
2021/03/31 06:27:28;;;;;;;58.63;27.42;;;9.80;99.90;;;;;;5091547;28;20024;-73
2021/03/31 06:30:06;;;;;;;60.22;27.67;;;9.90;99.90;;;;;;5092554;28;20375;-72
2021/03/31 06:32:39;;;;;;;61.70;28.05;;;10.00;99.90;;;;;;5091928;28;20016;-73
2021/03/31 06:35:16;;;;;;;63.03;29.42;;;10.10;99.90;;;;;;5092461;28;20047;-77
2021/03/31 06:37:42;;;;;;;65.53;28.40;;;10.20;99.90;;;;;;5092602;28;20016;-76
2021/03/31 06:40:25;;;;;;;67.70;28.17;;;10.30;99.90;;;;;;5091515;28;20027;-75
2021/03/31 06:42:50;;;;;;;68.90;28.15;;;10.40;99.90;;;;;;5103515;28;20032;-77
2021/03/31 06:45:19;;;;;;;59.65;28.20;;;10.50;99.90;;;;;;5092204;28;20472;-77
2021/03/31 06:50:15;;;;;;;63.60;27.67;;;10.60;99.90;;;;;;5112870;28;20028;-76
2021/03/31 06:53:02;;;;;;;60.67;27.42;;;10.80;99.90;;;;;;5097838;28;20039;-77
2021/03/31 06:55:30;;;;;;;57.65;28.17;;;10.80;99.90;;;;;;5092681;28;20058;-79
2021/03/31 06:57:57;;;;;;;59.35;26.90;;;10.90;99.90;;;;;;5113144;28;20066;-78
2021/03/31 07:00:29;;;;;;;54.53;26.55;;;11.00;99.90;;;;;;5108020;28;20542;-74
2021/03/31 07:03:01;;;;;;;55.10;27.77;;;11.10;99.90;;;;;;5096968;28;20035;-76
2021/03/31 07:05:32;;;;;;;49.22;27.90;;;11.10;99.90;;;;;;5111812;28;20030;-74
2021/03/31 07:08:02;;;;;;;58.80;29.10;;;11.20;99.90;;;;;;5093573;28;20023;-76
2021/03/31 07:10:28;;;;;;;50.85;25.20;;;11.30;99.90;;;;;;5104687;28;20035;-76
2021/03/31 07:12:55;;;;;;;64.13;27.75;;;11.30;99.90;;;;;;5112200;28;20020;-78
2021/03/31 07:15:25;;;;;;;52.58;26.35;;;11.40;99.90;;;;;;5111487;28;20379;-74
2021/03/31 07:17:57;;;;;;;54.83;26.80;;;11.50;99.90;;;;;;5106515;28;20059;-78
2021/03/31 07:20:24;;;;;;;50.85;25.92;;;11.60;99.90;;;;;;5091552;28;20180;-79
2021/03/31 07:22:50;;;;;;;57.38;27.95;;;11.60;99.90;;;;;;5091558;28;20036;-77
2021/03/31 07:25:17;;;;;;;60.33;29.00;;;11.70;99.90;;;;;;5091429;28;20089;-78
2021/03/31 07:27:44;;;;;;;54.78;27.73;;;11.80;99.90;;;;;;5090542;28;20032;-78
2021/03/31 07:30:13;;;;;;;51.45;26.75;;;11.90;99.90;;;;;;5089807;28;20024;-77
2021/03/31 07:32:43;;;;;;;53.50;28.10;;;11.90;99.90;;;;;;5091368;28;20538;-77
2021/03/31 07:35:09;;;;;;;44.25;26.80;;;11.90;99.90;;;;;;5105024;28;20028;-77
2021/03/31 07:37:36;;;;;;;49.63;26.08;;;12.00;99.90;;;;;;5091010;28;20016;-76
2021/03/31 07:40:08;;;;;;;42.42;25.15;;;12.00;99.90;;;;;;5091392;28;20028;-77
2021/03/31 07:42:36;;;;;;;48.65;27.08;;;12.10;99.90;;;;;;5091239;28;20127;-77
2021/03/31 07:45:04;;;;;;;51.42;28.45;;;12.20;99.90;;;;;;5091986;28;20028;-74
2021/03/31 07:47:31;;;;;;;53.92;28.63;;;12.30;99.90;;;;;;5106393;28;20032;-75
2021/03/31 07:49:57;;;;;;;53.38;28.02;;;12.40;99.90;;;;;;5091909;28;20032;-77
2021/03/31 07:52:56;;;;;;;48.95;28.15;;;12.40;99.90;;;;;;5092011;28;20020;-79
2021/03/31 07:55:36;;;;;;;53.85;28.20;;;12.60;99.90;;;;;;5092143;28;20017;-81
2021/03/31 07:58:14;;;;;;;51.55;29.30;;;12.60;99.90;;;;;;5091489;28;20434;-79
2021/03/31 08:00:49;;;;;;;48.25;28.10;;;12.70;99.90;;;;;;5092252;28;20055;-78
2021/03/31 08:03:17;;;;;;;51.25;28.70;;;12.80;99.90;;;;;;5091599;28;20039;-78
2021/03/31 08:06:04;;;;;;;55.28;28.10;;;12.80;99.90;;;;;;5091170;28;20020;-76
2021/03/31 08:08:30;;;;;;;45.35;26.95;;;12.90;99.90;;;;;;5092135;28;20066;-76
2021/03/31 08:10:55;;;;;;;50.80;27.40;;;13.00;99.90;;;;;;5091081;28;20029;-78
2021/03/31 08:13:30;;;;;;;46.17;27.98;;;13.00;99.90;;;;;;5106718;28;20027;-79
2021/03/31 08:15:57;;;;;;;49.25;25.58;;;13.10;99.90;;;;;;5109114;28;20024;-79
2021/03/31 08:18:23;;;;;;;49.88;28.27;;;13.20;99.90;;;;;;5106495;28;20425;-79
2021/03/31 08:20:49;;;;;;;51.33;30.20;;;13.20;99.90;;;;;;5109084;28;20028;-79
2021/03/31 08:23:47;;;;;;;54.40;28.92;;;13.30;99.90;;;;;;5104988;28;20055;-77
2021/03/31 08:26:26;;;;;;;46.85;27.05;;;13.40;99.90;;;;;;5102147;28;20024;-77
2021/03/31 08:28:52;;;;;;;60.55;29.75;;;13.50;99.90;;;;;;5096631;28;20059;-78
2021/03/31 08:31:29;;;;;;;51.53;28.33;;;13.60;99.90;;;;;;5107563;28;20027;-77
2021/03/31 08:33:55;;;;;;;49.22;29.48;;;13.70;99.90;;;;;;5096707;28;20023;-78
2021/03/31 08:36:22;;;;;;;46.95;27.58;;;13.80;99.90;;;;;;5101104;28;20027;-76
2021/03/31 08:38:55;;;;;;;50.92;27.60;;;13.90;99.90;;;;;;5092908;28;20027;-76
2021/03/31 08:41:24;;;;;;;50.45;28.65;;;14.00;99.90;;;;;;5093573;28;20626;-77
2021/03/31 08:43:51;;;;;;;52.67;30.25;;;14.00;99.90;;;;;;5104920;28;20042;-76
2021/03/31 08:46:30;;;;;;;48.30;30.15;;;14.20;99.90;;;;;;5109827;28;20040;-76
2021/03/31 08:48:56;;;;;;;51.63;29.35;;;14.30;99.90;;;;;;5098673;28;20108;-76
2021/03/31 08:51:22;;;;;;;48.15;28.85;;;14.40;99.90;;;;;;5097903;28;20483;-76
2021/03/31 08:53:48;;;;;;;53.85;30.70;;;14.50;99.90;;;;;;5096748;28;20051;-77
2021/03/31 08:56:19;;;;;;;50.17;29.55;;;14.70;99.90;;;;;;5094776;28;20464;-76
2021/03/31 08:58:47;;;;;;;44.72;29.08;;;14.80;99.90;;;;;;5111021;28;20038;-77
2021/03/31 09:01:23;;;;;;;44.30;28.98;;;14.90;99.90;;;;;;5111185;28;20024;-77
2021/03/31 09:03:48;;;;;;;44.10;28.25;;;14.90;99.90;;;;;;5100809;28;20040;-77
2021/03/31 09:06:18;;;;;;;40.25;26.77;;;15.00;99.90;;;;;;5098672;28;20157;-76
2021/03/31 09:08:45;;;;;;;51.00;29.45;;;15.00;99.90;;;;;;5094229;28;20067;-79
2021/03/31 09:11:10;;;;;;;46.08;28.25;;;15.10;99.90;;;;;;5107387;28;20027;-76
2021/03/31 09:13:38;;;;;;;46.88;29.92;;;15.20;99.90;;;;;;5112625;28;20069;-76
2021/03/31 09:16:13;;;;;;;35.88;25.52;;;15.30;99.90;;;;;;5099383;28;20103;-77
2021/03/31 09:18:43;;;;;;;42.67;28.13;;;15.40;99.90;;;;;;5096265;28;20031;-77
2021/03/31 09:21:08;;;;;;;40.78;29.05;;;15.50;99.90;;;;;;5109883;28;20019;-76
2021/03/31 09:23:34;;;;;;;39.72;27.85;;;15.60;99.90;;;;;;5098453;28;20039;-77
2021/03/31 09:26:03;;;;;;;44.90;27.30;;;15.70;99.90;;;;;;5098670;28;20103;-77
2021/03/31 09:28:29;;;;;;;40.30;27.25;;;15.80;99.90;;;;;;5097898;28;20024;-77
2021/03/31 09:31:09;;;;;;;43.17;26.90;;;15.90;99.90;;;;;;5094165;28;20031;-78
2021/03/31 09:33:36;;;;;;;50.42;26.38;;;15.90;99.90;;;;;;5105458;28;20032;-78
2021/03/31 09:36:12;;;;;;;44.05;27.95;;;16.00;99.90;;;;;;5112329;28;20024;-77
2021/03/31 09:38:38;;;;;;;45.75;26.73;;;16.10;99.90;;;;;;5101160;28;20023;-78
2021/03/31 09:41:06;;;;;;;39.90;25.45;;;16.20;99.90;;;;;;5092383;28;20442;-78
2021/03/31 09:43:33;;;;;;;40.60;27.35;;;16.30;99.90;;;;;;5095174;28;20056;-78
2021/03/31 09:45:58;;;;;;;40.28;25.83;;;16.40;99.90;;;;;;5094371;28;20467;-78
2021/03/31 09:48:25;;;;;;;48.50;28.67;;;16.50;99.90;;;;;;5097369;28;20073;-78
2021/03/31 09:50:52;;;;;;;41.95;27.80;;;16.60;99.90;;;;;;5092293;28;20043;-77
2021/03/31 09:53:22;;;;;;;42.30;28.10;;;16.70;99.90;;;;;;5098242;28;20016;-76
2021/03/31 09:55:48;;;;;;;44.55;27.08;;;16.80;99.90;;;;;;5103164;28;20020;-78
2021/03/31 09:58:14;;;;;;;47.55;28.17;;;16.90;99.90;;;;;;5094577;28;20020;-78
2021/03/31 10:00:41;;;;;;;41.90;27.30;;;17.00;99.90;;;;;;5095751;28;20031;-76
2021/03/31 10:03:08;;;;;;;40.00;26.13;;;17.10;99.90;;;;;;5111382;28;20122;-77
2021/03/31 10:05:34;;;;;;;42.20;25.48;;;17.10;99.90;;;;;;5109837;28;20030;-76
2021/03/31 10:08:10;;;;;;;42.17;28.30;;;17.20;99.90;;;;;;5103138;28;20028;-77
2021/03/31 10:10:46;;;;;;;42.55;28.15;;;17.30;99.90;;;;;;5111921;28;20080;-77
2021/03/31 10:13:13;;;;;;;46.75;28.55;;;17.40;99.90;;;;;;5105145;28;20024;-77
2021/03/31 10:15:48;;;;;;;45.60;28.48;;;17.50;99.90;;;;;;5103657;28;20098;-76
2021/03/31 10:18:15;;;;;;;38.78;27.23;;;17.50;99.90;;;;;;5106619;28;20031;-76
2021/03/31 10:20:48;;;;;;;38.55;26.20;;;17.60;99.90;;;;;;5100155;28;20047;-76
2021/03/31 10:23:33;;;;;;;41.08;27.33;;;17.70;99.90;;;;;;5096169;28;20606;-78
2021/03/31 10:26:22;;;;;;;45.53;28.15;;;17.90;99.90;;;;;;5104312;28;20020;-77
2021/03/31 10:28:48;;;;;;;41.90;27.25;;;18.00;99.90;;;;;;5107901;28;20072;-76
2021/03/31 10:31:17;;;;;;;42.03;27.60;;;18.00;99.90;;;;;;5110546;28;20027;-77
2021/03/31 10:33:43;;;;;;;47.20;28.25;;;18.20;99.90;;;;;;5108931;28;20020;-77
2021/03/31 10:36:09;;;;;;;45.13;27.00;;;18.20;99.90;;;;;;5110620;28;20058;-76
2021/03/31 10:38:52;;;;;;;45.60;28.67;;;18.20;99.90;;;;;;5099376;28;20063;-76
2021/03/31 10:49:32;;;;;;;38.63;23.92;;;18.60;98.50;;;;;;5097535;28;20375;-77
2021/03/31 10:52:01;;;;;;;47.80;28.25;;;18.70;98.40;;;;;;5108517;28;20031;-76
2021/03/31 10:54:27;;;;;;;44.47;24.92;;;18.80;98.00;;;;;;5104807;28;20107;-79
2021/03/31 10:57:04;;;;;;;46.35;27.13;;;18.80;97.10;;;;;;5098127;28;21492;-77
2021/03/31 10:59:30;;;;;;;45.83;27.45;;;18.90;96.50;;;;;;5096643;28;21172;-78
2021/03/31 11:01:55;;;;;;;47.88;28.00;;;19.00;96.60;;;;;;5094611;28;20493;-78
2021/03/31 11:04:21;;;;;;;50.50;29.83;;;19.00;96.00;;;;;;5097523;28;20036;-78
2021/03/31 11:06:47;;;;;;;49.75;28.27;;;19.00;95.50;;;;;;5092369;28;20024;-78
2021/03/31 11:09:12;;;;;;;46.33;29.02;;;19.10;94.80;;;;;;5095089;28;20024;-78
2021/03/31 11:11:38;;;;;;;43.63;27.85;;;19.10;94.40;;;;;;5092495;28;20020;-77
2021/03/31 11:14:03;;;;;;;42.95;25.80;;;19.20;93.10;;;;;;5097814;28;20019;-77
2021/03/31 11:16:29;;;;;;;48.72;27.23;;;19.40;92.20;;;;;;5111540;28;20019;-79
2021/03/31 11:19:13;;;;;;;49.40;28.25;;;19.40;91.00;;;;;;5099687;28;20472;-79
2021/03/31 11:26:53;;;;;;;52.05;28.73;;;19.60;83.90;;;;;;5094924;28;20515;-78
2021/03/31 11:29:19;;;;;;;53.75;26.75;;;19.60;82.40;;;;;;5104892;28;20028;-78
2021/03/31 11:31:45;;;;;;;53.38;26.35;;;19.70;80.30;;;;;;5098448;28;20479;-78
2021/03/31 11:34:10;;;;;;;50.33;26.08;;;19.80;79.60;;;;;;5099508;28;20034;-79
2021/03/31 11:36:36;;;;;;;57.17;28.40;;;19.90;78.30;;;;;;5104969;28;20096;-78
2021/03/31 11:39:03;;;;;;;57.22;28.80;;;19.90;76.70;;;;;;5104220;28;20019;-79
2021/03/31 11:41:31;;;;;;;51.33;27.67;;;20.00;76.40;;;;;;5104205;28;20051;-78
2021/03/31 11:43:56;;;;;;;59.13;30.08;;;20.10;77.90;;;;;;5092208;28;20036;-78
2021/03/31 11:46:22;;;;;;;55.40;30.75;;;20.10;76.50;;;;;;5092818;28;20487;-77
2021/03/31 11:48:50;;;;;;;67.15;32.22;;;20.30;75.70;;;;;;5102894;28;20051;-77
2021/03/31 11:51:16;;;;;;;54.53;28.88;;;20.30;75.00;;;;;;5098907;28;20123;-78
2021/03/31 11:53:41;;;;;;;54.78;29.60;;;20.40;74.00;;;;;;5098303;28;20111;-78
2021/03/31 11:56:07;;;;;;;55.33;30.70;;;20.40;72.90;;;;;;5100287;28;20042;-78
2021/03/31 11:58:33;;;;;;;53.08;28.08;;;20.50;71.40;;;;;;5108254;28;20031;-77
2021/03/31 12:00:59;;;;;;;60.88;30.73;;;20.60;72.10;;;;;;5109939;28;20019;-75
2021/03/31 12:03:28;;;;;;;53.58;28.27;;;20.70;72.10;;;;;;5108787;28;20533;-77
2021/03/31 12:05:53;;;;;;;54.92;29.58;;;20.80;71.80;;;;;;5103411;28;20023;-77
2021/03/31 12:08:19;;;;;;;56.70;29.75;;;20.90;70.30;;;;;;5094036;28;20020;-78
2021/03/31 12:10:45;;;;;;;54.05;29.15;;;20.90;70.10;;;;;;5089828;28;20493;-79
2021/03/31 12:13:11;;;;;;;51.38;27.52;;;21.00;70.10;;;;;;5090663;28;20024;-79
2021/03/31 12:15:36;;;;;;;56.20;28.55;;;21.10;69.30;;;;;;5092343;28;20563;-79
2021/03/31 12:18:02;;;;;;;53.25;28.73;;;21.20;68.60;;;;;;5093898;28;20302;-79
2021/03/31 12:20:27;;;;;;;47.00;26.38;;;21.30;68.10;;;;;;5093463;28;20100;-78
2021/03/31 12:22:53;;;;;;;47.95;27.45;;;21.40;67.30;;;;;;5091541;28;20507;-79
2021/03/31 12:25:21;;;;;;;49.70;27.85;;;21.40;66.00;;;;;;5090627;28;20027;-79
2021/03/31 12:27:47;;;;;;;49.13;28.65;;;21.40;64.30;;;;;;5091138;28;20036;-79
2021/03/31 12:30:17;;;;;;;55.75;27.02;;;21.50;65.40;;;;;;5093601;28;20020;-79
2021/03/31 12:32:42;;;;;;;49.05;24.70;;;21.50;64.70;;;;;;5103584;28;20039;-78
2021/03/31 12:35:09;;;;;;;48.03;26.08;;;21.60;64.40;;;;;;5101072;28;20016;-78
2021/03/31 12:37:35;;;;;;;47.50;24.15;;;21.70;63.00;;;;;;5097725;28;20107;-78
2021/03/31 12:40:01;;;;;;;45.13;24.02;;;21.70;61.40;;;;;;5094502;28;20016;-78
2021/03/31 12:42:27;;;;;;;43.28;23.20;;;21.70;60.70;;;;;;5094318;28;20139;-79
2021/03/31 12:44:52;;;;;;;44.83;24.13;;;21.80;60.30;;;;;;5094752;28;20606;-78
2021/03/31 12:47:21;;;;;;;40.85;21.98;;;21.90;60.80;;;;;;5097895;28;20024;-79
2021/03/31 12:49:48;;;;;;;38.03;22.48;;;22.00;59.80;;;;;;5096555;28;20563;-77
2021/03/31 12:52:17;;;;;;;40.42;22.05;;;22.10;59.90;;;;;;5107499;28;20046;-77
2021/03/31 12:54:56;;;;;;;37.72;21.70;;;22.20;58.50;;;;;;5112041;28;20116;-77